sensor_id;sensor_type;location;lat;lon;timestamp;temperature;humidity
10468;DHT22;5281;48.878;9.394;2023-04-24T00:00:47;13.80;99.90
10468;DHT22;5281;48.878;9.394;2023-04-24T00:03:15;13.90;99.90
10468;DHT22;5281;48.878;9.394;2023-04-24T00:05:42;13.90;99.90
10468;DHT22;5281;48.878;9.394;2023-04-24T00:08:08;13.90;99.90
10468;DHT22;5281;48.878;9.394;2023-04-24T00:10:35;13.90;99.90
10468;DHT22;5281;48.878;9.394;2023-04-24T00:13:02;13.90;99.90
10468;DHT22;5281;48.878;9.394;2023-04-24T00:15:28;13.90;99.90
10468;DHT22;5281;48.878;9.394;2023-04-24T00:17:56;13.90;99.90
10468;DHT22;5281;48.878;9.394;2023-04-24T00:20:24;14.00;99.90
10468;DHT22;5281;48.878;9.394;2023-04-24T00:22:51;14.00;99.90
10468;DHT22;5281;48.878;9.394;2023-04-24T00:25:17;14.00;99.90
10468;DHT22;5281;48.878;9.394;2023-04-24T00:27:44;14.10;99.90
10468;DHT22;5281;48.878;9.394;2023-04-24T00:30:11;14.10;99.90
10468;DHT22;5281;48.878;9.394;2023-04-24T00:32:38;14.00;99.90
10468;DHT22;5281;48.878;9.394;2023-04-24T00:35:06;14.10;99.90
10468;DHT22;5281;48.878;9.394;2023-04-24T00:37:34;14.10;99.90
10468;DHT22;5281;48.878;9.394;2023-04-24T00:40:01;14.20;99.90
10468;DHT22;5281;48.878;9.394;2023-04-24T00:42:28;14.20;99.90
10468;DHT22;5281;48.878;9.394;2023-04-24T00:44:56;14.20;99.90
10468;DHT22;5281;48.878;9.394;2023-04-24T00:47:23;14.20;99.90
10468;DHT22;5281;48.878;9.394;2023-04-24T00:49:51;14.20;99.90
10468;DHT22;5281;48.878;9.394;2023-04-24T00:52:17;14.30;99.90
10468;DHT22;5281;48.878;9.394;2023-04-24T00:54:46;14.30;99.90
10468;DHT22;5281;48.878;9.394;2023-04-24T00:57:13;14.30;99.90
10468;DHT22;5281;48.878;9.394;2023-04-24T00:59:41;14.30;99.90
10468;DHT22;5281;48.878;9.394;2023-04-24T01:02:08;14.30;99.90
10468;DHT22;5281;48.878;9.394;2023-04-24T01:04:36;14.30;99.90
10468;DHT22;5281;48.878;9.394;2023-04-24T01:07:03;14.30;99.90
10468;DHT22;5281;48.878;9.394;2023-04-24T01:09:35;14.30;99.90
10468;DHT22;5281;48.878;9.394;2023-04-24T01:12:04;14.30;99.90
10468;DHT22;5281;48.878;9.394;2023-04-24T01:14:31;14.30;99.90
10468;DHT22;5281;48.878;9.394;2023-04-24T01:16:58;14.30;99.90
10468;DHT22;5281;48.878;9.394;2023-04-24T01:19:24;14.30;99.90
10468;DHT22;5281;48.878;9.394;2023-04-24T01:21:53;14.30;99.90
10468;DHT22;5281;48.878;9.394;2023-04-24T01:24:22;14.30;99.90
10468;DHT22;5281;48.878;9.394;2023-04-24T01:26:48;14.30;99.90
10468;DHT22;5281;48.878;9.394;2023-04-24T01:29:16;14.20;99.90
10468;DHT22;5281;48.878;9.394;2023-04-24T01:31:42;14.20;99.90
10468;DHT22;5281;48.878;9.394;2023-04-24T01:34:09;14.10;99.90
10468;DHT22;5281;48.878;9.394;2023-04-24T01:36:37;14.10;99.90
10468;DHT22;5281;48.878;9.394;2023-04-24T01:39:04;14.10;99.90
10468;DHT22;5281;48.878;9.394;2023-04-24T01:41:33;14.20;99.90
10468;DHT22;5281;48.878;9.394;2023-04-24T01:44:00;14.10;99.90
10468;DHT22;5281;48.878;9.394;2023-04-24T01:46:26;14.10;99.90
10468;DHT22;5281;48.878;9.394;2023-04-24T01:48:53;14.20;99.90
10468;DHT22;5281;48.878;9.394;2023-04-24T01:51:21;14.20;99.90
10468;DHT22;5281;48.878;9.394;2023-04-24T01:53:48;14.10;99.90
10468;DHT22;5281;48.878;9.394;2023-04-24T01:56:15;14.00;99.90
10468;DHT22;5281;48.878;9.394;2023-04-24T01:58:43;13.90;99.90
10468;DHT22;5281;48.878;9.394;2023-04-24T02:01:15;13.90;99.90
10468;DHT22;5281;48.878;9.394;2023-04-24T02:03:44;13.70;99.90
10468;DHT22;5281;48.878;9.394;2023-04-24T02:06:11;13.60;99.90
10468;DHT22;5281;48.878;9.394;2023-04-24T02:08:38;13.60;99.90
10468;DHT22;5281;48.878;9.394;2023-04-24T02:11:05;13.70;99.90
10468;DHT22;5281;48.878;9.394;2023-04-24T02:13:31;13.70;99.90
10468;DHT22;5281;48.878;9.394;2023-04-24T02:15:59;13.70;99.90
10468;DHT22;5281;48.878;9.394;2023-04-24T02:18:26;13.70;99.90
10468;DHT22;5281;48.878;9.394;2023-04-24T02:20:53;13.70;99.90
10468;DHT22;5281;48.878;9.394;2023-04-24T02:23:20;13.60;99.90
10468;DHT22;5281;48.878;9.394;2023-04-24T02:25:47;13.60;99.90
10468;DHT22;5281;48.878;9.394;2023-04-24T02:28:14;13.60;99.90
10468;DHT22;5281;48.878;9.394;2023-04-24T02:30:40;13.60;99.90
10468;DHT22;5281;48.878;9.394;2023-04-24T02:33:08;13.50;99.90
10468;DHT22;5281;48.878;9.394;2023-04-24T02:35:35;13.40;99.90
10468;DHT22;5281;48.878;9.394;2023-04-24T02:38:02;13.40;99.90
10468;DHT22;5281;48.878;9.394;2023-04-24T02:40:29;13.50;99.90
10468;DHT22;5281;48.878;9.394;2023-04-24T02:42:56;13.60;99.90
10468;DHT22;5281;48.878;9.394;2023-04-24T02:45:22;13.60;99.90
10468;DHT22;5281;48.878;9.394;2023-04-24T02:47:49;13.70;99.90
10468;DHT22;5281;48.878;9.394;2023-04-24T02:50:17;13.70;99.90
10468;DHT22;5281;48.878;9.394;2023-04-24T02:52:44;13.70;99.90
10468;DHT22;5281;48.878;9.394;2023-04-24T02:55:11;13.70;99.90
10468;DHT22;5281;48.878;9.394;2023-04-24T02:57:38;13.70;99.90
10468;DHT22;5281;48.878;9.394;2023-04-24T03:00:06;13.80;99.90
10468;DHT22;5281;48.878;9.394;2023-04-24T03:02:34;13.90;99.90
10468;DHT22;5281;48.878;9.394;2023-04-24T03:05:01;14.00;99.90
10468;DHT22;5281;48.878;9.394;2023-04-24T03:07:29;14.00;99.90
10468;DHT22;5281;48.878;9.394;2023-04-24T03:09:58;14.10;99.90
10468;DHT22;5281;48.878;9.394;2023-04-24T03:12:25;14.10;99.90
10468;DHT22;5281;48.878;9.394;2023-04-24T03:14:51;14.10;99.90
10468;DHT22;5281;48.878;9.394;2023-04-24T03:17:18;14.10;99.90
10468;DHT22;5281;48.878;9.394;2023-04-24T03:19:45;14.00;99.90
10468;DHT22;5281;48.878;9.394;2023-04-24T03:22:12;14.00;99.90
10468;DHT22;5281;48.878;9.394;2023-04-24T03:24:40;13.90;99.90
10468;DHT22;5281;48.878;9.394;2023-04-24T03:27:06;13.80;99.90
10468;DHT22;5281;48.878;9.394;2023-04-24T03:29:33;13.70;99.90
10468;DHT22;5281;48.878;9.394;2023-04-24T03:32:00;13.70;99.90
10468;DHT22;5281;48.878;9.394;2023-04-24T03:34:27;13.60;99.90
10468;DHT22;5281;48.878;9.394;2023-04-24T03:36:53;13.60;99.90
10468;DHT22;5281;48.878;9.394;2023-04-24T03:39:20;13.50;99.90
10468;DHT22;5281;48.878;9.394;2023-04-24T03:41:48;13.40;99.90
10468;DHT22;5281;48.878;9.394;2023-04-24T03:44:15;13.40;99.90
10468;DHT22;5281;48.878;9.394;2023-04-24T03:46:41;13.30;99.90
10468;DHT22;5281;48.878;9.394;2023-04-24T03:49:08;13.20;99.90
10468;DHT22;5281;48.878;9.394;2023-04-24T03:51:34;13.20;99.90
10468;DHT22;5281;48.878;9.394;2023-04-24T03:54:02;13.20;99.90
10468;DHT22;5281;48.878;9.394;2023-04-24T03:56:29;13.10;99.90
10468;DHT22;5281;48.878;9.394;2023-04-24T03:58:57;13.20;99.90
10468;DHT22;5281;48.878;9.394;2023-04-24T04:01:23;12.90;99.90
10468;DHT22;5281;48.878;9.394;2023-04-24T04:03:50;12.80;99.90
10468;DHT22;5281;48.878;9.394;2023-04-24T04:06:17;12.80;99.90
10468;DHT22;5281;48.878;9.394;2023-04-24T04:08:44;12.80;99.90
10468;DHT22;5281;48.878;9.394;2023-04-24T04:11:11;12.70;99.90
10468;DHT22;5281;48.878;9.394;2023-04-24T04:13:38;12.80;99.90
10468;DHT22;5281;48.878;9.394;2023-04-24T04:16:06;12.80;99.90
10468;DHT22;5281;48.878;9.394;2023-04-24T04:18:33;12.80;99.90
10468;DHT22;5281;48.878;9.394;2023-04-24T04:21:00;12.90;99.90
10468;DHT22;5281;48.878;9.394;2023-04-24T04:23:27;12.90;99.90
10468;DHT22;5281;48.878;9.394;2023-04-24T04:25:53;13.00;99.90
10468;DHT22;5281;48.878;9.394;2023-04-24T04:28:20;13.00;99.90
10468;DHT22;5281;48.878;9.394;2023-04-24T04:30:47;13.10;99.90
10468;DHT22;5281;48.878;9.394;2023-04-24T04:33:15;13.20;99.90
10468;DHT22;5281;48.878;9.394;2023-04-24T04:35:42;13.20;99.90
10468;DHT22;5281;48.878;9.394;2023-04-24T04:38:09;13.20;99.90
10468;DHT22;5281;48.878;9.394;2023-04-24T04:40:36;13.30;99.90
10468;DHT22;5281;48.878;9.394;2023-04-24T04:43:03;13.30;99.90
10468;DHT22;5281;48.878;9.394;2023-04-24T04:45:29;13.40;99.90
10468;DHT22;5281;48.878;9.394;2023-04-24T04:47:58;13.20;99.90
10468;DHT22;5281;48.878;9.394;2023-04-24T04:50:27;13.10;99.90
10468;DHT22;5281;48.878;9.394;2023-04-24T04:52:54;13.00;99.90
10468;DHT22;5281;48.878;9.394;2023-04-24T04:55:21;13.00;99.90
10468;DHT22;5281;48.878;9.394;2023-04-24T04:57:47;13.00;99.90
10468;DHT22;5281;48.878;9.394;2023-04-24T05:00:14;12.90;99.90
10468;DHT22;5281;48.878;9.394;2023-04-24T05:02:41;12.90;99.90
10468;DHT22;5281;48.878;9.394;2023-04-24T05:05:08;12.90;99.90
10468;DHT22;5281;48.878;9.394;2023-04-24T05:07:36;12.90;99.90
10468;DHT22;5281;48.878;9.394;2023-04-24T05:10:03;12.90;99.90
10468;DHT22;5281;48.878;9.394;2023-04-24T05:12:30;12.90;99.90
10468;DHT22;5281;48.878;9.394;2023-04-24T05:14:57;13.00;99.90
10468;DHT22;5281;48.878;9.394;2023-04-24T05:17:24;12.90;99.90
10468;DHT22;5281;48.878;9.394;2023-04-24T05:19:51;12.90;99.90
10468;DHT22;5281;48.878;9.394;2023-04-24T05:22:18;12.90;99.90
10468;DHT22;5281;48.878;9.394;2023-04-24T05:24:47;13.00;99.90
10468;DHT22;5281;48.878;9.394;2023-04-24T05:27:14;13.10;99.90
10468;DHT22;5281;48.878;9.394;2023-04-24T05:29:41;13.10;99.90
10468;DHT22;5281;48.878;9.394;2023-04-24T05:32:07;13.20;99.90
10468;DHT22;5281;48.878;9.394;2023-04-24T05:34:34;13.30;99.90
10468;DHT22;5281;48.878;9.394;2023-04-24T05:37:01;13.30;99.90
10468;DHT22;5281;48.878;9.394;2023-04-24T05:39:28;13.40;99.90
10468;DHT22;5281;48.878;9.394;2023-04-24T05:41:56;13.50;99.90
10468;DHT22;5281;48.878;9.394;2023-04-24T05:44:23;13.40;99.90
10468;DHT22;5281;48.878;9.394;2023-04-24T05:46:51;13.40;99.90
10468;DHT22;5281;48.878;9.394;2023-04-24T05:49:17;13.50;99.90
10468;DHT22;5281;48.878;9.394;2023-04-24T05:51:44;13.40;99.90
10468;DHT22;5281;48.878;9.394;2023-04-24T05:54:11;13.50;99.90
10468;DHT22;5281;48.878;9.394;2023-04-24T05:56:38;13.60;99.90
10468;DHT22;5281;48.878;9.394;2023-04-24T05:59:06;13.60;99.90
10468;DHT22;5281;48.878;9.394;2023-04-24T06:01:33;13.60;99.90
10468;DHT22;5281;48.878;9.394;2023-04-24T06:04:02;13.60;99.90
10468;DHT22;5281;48.878;9.394;2023-04-24T06:06:28;13.70;99.90
10468;DHT22;5281;48.878;9.394;2023-04-24T06:08:56;13.60;99.90
10468;DHT22;5281;48.878;9.394;2023-04-24T06:11:24;13.70;99.90
10468;DHT22;5281;48.878;9.394;2023-04-24T06:13:50;13.80;99.90
10468;DHT22;5281;48.878;9.394;2023-04-24T06:16:19;14.10;99.90
10468;DHT22;5281;48.878;9.394;2023-04-24T06:18:46;14.40;99.90
10468;DHT22;5281;48.878;9.394;2023-04-24T06:21:14;14.60;99.90
10468;DHT22;5281;48.878;9.394;2023-04-24T06:23:41;14.50;99.90
10468;DHT22;5281;48.878;9.394;2023-04-24T06:26:08;14.40;99.90
10468;DHT22;5281;48.878;9.394;2023-04-24T06:28:34;14.20;99.90
10468;DHT22;5281;48.878;9.394;2023-04-24T06:31:01;14.20;99.90
10468;DHT22;5281;48.878;9.394;2023-04-24T06:33:29;14.20;99.90
10468;DHT22;5281;48.878;9.394;2023-04-24T06:35:56;14.40;99.90
10468;DHT22;5281;48.878;9.394;2023-04-24T06:38:23;14.50;99.90
10468;DHT22;5281;48.878;9.394;2023-04-24T06:40:49;15.40;99.90
10468;DHT22;5281;48.878;9.394;2023-04-24T06:43:16;17.90;99.90
10468;DHT22;5281;48.878;9.394;2023-04-24T06:45:43;20.50;99.90
10468;DHT22;5281;48.878;9.394;2023-04-24T06:48:10;21.70;99.90
10468;DHT22;5281;48.878;9.394;2023-04-24T06:50:38;22.30;99.90
10468;DHT22;5281;48.878;9.394;2023-04-24T06:53:05;22.30;99.90
10468;DHT22;5281;48.878;9.394;2023-04-24T06:55:32;22.10;99.90
10468;DHT22;5281;48.878;9.394;2023-04-24T06:57:58;21.70;99.90
10468;DHT22;5281;48.878;9.394;2023-04-24T07:00:25;21.60;99.90
10468;DHT22;5281;48.878;9.394;2023-04-24T07:02:52;21.20;99.90
10468;DHT22;5281;48.878;9.394;2023-04-24T07:05:18;20.60;99.90
10468;DHT22;5281;48.878;9.394;2023-04-24T07:07:47;20.30;99.90
10468;DHT22;5281;48.878;9.394;2023-04-24T07:10:16;20.90;99.90
10468;DHT22;5281;48.878;9.394;2023-04-24T07:12:43;21.90;99.90
10468;DHT22;5281;48.878;9.394;2023-04-24T07:15:10;23.40;99.00
10468;DHT22;5281;48.878;9.394;2023-04-24T07:17:37;25.00;94.60
10468;DHT22;5281;48.878;9.394;2023-04-24T07:20:09;26.30;90.90
10468;DHT22;5281;48.878;9.394;2023-04-24T07:22:36;26.80;90.10
10468;DHT22;5281;48.878;9.394;2023-04-24T07:25:04;27.30;87.70
10468;DHT22;5281;48.878;9.394;2023-04-24T07:27:31;28.60;82.20
10468;DHT22;5281;48.878;9.394;2023-04-24T07:29:58;28.90;78.80
10468;DHT22;5281;48.878;9.394;2023-04-24T07:32:25;28.10;77.90
10468;DHT22;5281;48.878;9.394;2023-04-24T07:34:51;27.10;78.40
10468;DHT22;5281;48.878;9.394;2023-04-24T07:37:18;25.90;80.40
10468;DHT22;5281;48.878;9.394;2023-04-24T07:39:45;24.70;82.50
10468;DHT22;5281;48.878;9.394;2023-04-24T07:42:14;23.50;83.70
10468;DHT22;5281;48.878;9.394;2023-04-24T07:44:40;22.40;87.10
10468;DHT22;5281;48.878;9.394;2023-04-24T07:47:08;21.20;90.00
10468;DHT22;5281;48.878;9.394;2023-04-24T07:49:35;20.20;91.50
10468;DHT22;5281;48.878;9.394;2023-04-24T07:52:02;19.30;91.80
10468;DHT22;5281;48.878;9.394;2023-04-24T07:54:29;18.80;91.70
10468;DHT22;5281;48.878;9.394;2023-04-24T07:56:56;19.00;92.40
10468;DHT22;5281;48.878;9.394;2023-04-24T07:59:24;20.40;91.30
10468;DHT22;5281;48.878;9.394;2023-04-24T08:01:51;21.50;90.10
10468;DHT22;5281;48.878;9.394;2023-04-24T08:04:19;21.70;86.40
10468;DHT22;5281;48.878;9.394;2023-04-24T08:06:47;21.30;85.80
10468;DHT22;5281;48.878;9.394;2023-04-24T08:09:14;20.60;86.40
10468;DHT22;5281;48.878;9.394;2023-04-24T08:11:41;19.80;87.90
10468;DHT22;5281;48.878;9.394;2023-04-24T08:14:08;19.20;89.10
10468;DHT22;5281;48.878;9.394;2023-04-24T08:16:36;18.90;90.00
10468;DHT22;5281;48.878;9.394;2023-04-24T08:19:03;18.80;90.80
10468;DHT22;5281;48.878;9.394;2023-04-24T08:21:30;18.90;89.20
10468;DHT22;5281;48.878;9.394;2023-04-24T08:23:57;18.80;90.70
10468;DHT22;5281;48.878;9.394;2023-04-24T08:26:24;18.60;91.60
10468;DHT22;5281;48.878;9.394;2023-04-24T08:28:51;18.60;92.30
10468;DHT22;5281;48.878;9.394;2023-04-24T08:31:18;18.50;92.20
10468;DHT22;5281;48.878;9.394;2023-04-24T08:33:46;18.30;92.30
10468;DHT22;5281;48.878;9.394;2023-04-24T08:36:13;18.30;92.50
10468;DHT22;5281;48.878;9.394;2023-04-24T08:38:39;18.30;92.90
10468;DHT22;5281;48.878;9.394;2023-04-24T08:41:07;18.00;92.90
10468;DHT22;5281;48.878;9.394;2023-04-24T08:43:37;17.80;93.00
10468;DHT22;5281;48.878;9.394;2023-04-24T08:46:05;17.50;92.80
10468;DHT22;5281;48.878;9.394;2023-04-24T08:48:32;17.30;91.80
10468;DHT22;5281;48.878;9.394;2023-04-24T08:51:00;17.30;92.00
10468;DHT22;5281;48.878;9.394;2023-04-24T08:53:30;17.40;92.00
10468;DHT22;5281;48.878;9.394;2023-04-24T08:55:59;17.60;92.30
10468;DHT22;5281;48.878;9.394;2023-04-24T08:58:27;17.70;90.90
10468;DHT22;5281;48.878;9.394;2023-04-24T09:00:55;17.60;90.60
10468;DHT22;5281;48.878;9.394;2023-04-24T09:03:22;17.60;88.10
10468;DHT22;5281;48.878;9.394;2023-04-24T09:05:49;17.70;89.60
10468;DHT22;5281;48.878;9.394;2023-04-24T09:08:18;17.70;87.70
10468;DHT22;5281;48.878;9.394;2023-04-24T09:10:46;17.60;88.40
10468;DHT22;5281;48.878;9.394;2023-04-24T09:13:13;17.60;89.10
10468;DHT22;5281;48.878;9.394;2023-04-24T09:15:41;17.50;88.30
10468;DHT22;5281;48.878;9.394;2023-04-24T09:18:08;17.50;88.10
10468;DHT22;5281;48.878;9.394;2023-04-24T09:20:34;17.60;87.60
10468;DHT22;5281;48.878;9.394;2023-04-24T09:23:01;17.80;87.20
10468;DHT22;5281;48.878;9.394;2023-04-24T09:25:32;17.80;85.80
10468;DHT22;5281;48.878;9.394;2023-04-24T09:28:02;17.80;87.30
10468;DHT22;5281;48.878;9.394;2023-04-24T09:30:29;18.00;87.90
10468;DHT22;5281;48.878;9.394;2023-04-24T09:33:10;18.20;88.10
10468;DHT22;5281;48.878;9.394;2023-04-24T09:35:40;18.30;87.50
10468;DHT22;5281;48.878;9.394;2023-04-24T09:38:07;18.30;86.80
10468;DHT22;5281;48.878;9.394;2023-04-24T09:40:35;18.20;87.10
10468;DHT22;5281;48.878;9.394;2023-04-24T09:43:02;17.90;86.30
10468;DHT22;5281;48.878;9.394;2023-04-24T09:45:35;17.70;88.10
10468;DHT22;5281;48.878;9.394;2023-04-24T09:48:03;17.60;89.30
10468;DHT22;5281;48.878;9.394;2023-04-24T09:50:31;17.50;92.10
10468;DHT22;5281;48.878;9.394;2023-04-24T09:53:03;17.30;91.00
10468;DHT22;5281;48.878;9.394;2023-04-24T09:55:30;17.00;90.90
10468;DHT22;5281;48.878;9.394;2023-04-24T09:58:00;17.10;90.60
10468;DHT22;5281;48.878;9.394;2023-04-24T10:00:32;17.30;90.40
10468;DHT22;5281;48.878;9.394;2023-04-24T10:02:59;17.50;90.40
10468;DHT22;5281;48.878;9.394;2023-04-24T10:05:29;17.70;88.50
10468;DHT22;5281;48.878;9.394;2023-04-24T10:07:57;18.00;88.60
10468;DHT22;5281;48.878;9.394;2023-04-24T10:10:24;18.40;89.20
10468;DHT22;5281;48.878;9.394;2023-04-24T10:12:52;18.90;88.00
10468;DHT22;5281;48.878;9.394;2023-04-24T10:15:21;18.90;87.40
10468;DHT22;5281;48.878;9.394;2023-04-24T10:17:49;18.50;87.30
10468;DHT22;5281;48.878;9.394;2023-04-24T10:20:20;18.00;86.60
10468;DHT22;5281;48.878;9.394;2023-04-24T10:22:49;17.70;87.60
10468;DHT22;5281;48.878;9.394;2023-04-24T10:25:20;17.30;88.10
10468;DHT22;5281;48.878;9.394;2023-04-24T10:27:48;17.10;87.60
10468;DHT22;5281;48.878;9.394;2023-04-24T10:30:16;16.90;86.70
10468;DHT22;5281;48.878;9.394;2023-04-24T10:32:45;17.20;87.30
10468;DHT22;5281;48.878;9.394;2023-04-24T10:35:13;17.50;87.90
10468;DHT22;5281;48.878;9.394;2023-04-24T10:37:43;17.70;88.10
10468;DHT22;5281;48.878;9.394;2023-04-24T10:40:11;17.70;86.60
10468;DHT22;5281;48.878;9.394;2023-04-24T10:42:42;17.60;85.60
10468;DHT22;5281;48.878;9.394;2023-04-24T10:45:16;17.20;84.80
10468;DHT22;5281;48.878;9.394;2023-04-24T10:47:51;16.80;86.30
10468;DHT22;5281;48.878;9.394;2023-04-24T10:50:18;16.60;86.80
10468;DHT22;5281;48.878;9.394;2023-04-24T10:52:45;16.40;87.90
10468;DHT22;5281;48.878;9.394;2023-04-24T10:55:13;16.30;88.60
10468;DHT22;5281;48.878;9.394;2023-04-24T10:58:01;16.20;89.00
10468;DHT22;5281;48.878;9.394;2023-04-24T11:00:28;16.10;89.00
10468;DHT22;5281;48.878;9.394;2023-04-24T11:02:56;15.80;90.40
10468;DHT22;5281;48.878;9.394;2023-04-24T11:05:49;15.60;90.80
10468;DHT22;5281;48.878;9.394;2023-04-24T11:08:26;15.40;91.20
10468;DHT22;5281;48.878;9.394;2023-04-24T11:10:59;15.30;91.30
10468;DHT22;5281;48.878;9.394;2023-04-24T11:13:27;15.30;91.10
10468;DHT22;5281;48.878;9.394;2023-04-24T11:16:14;15.50;91.20
10468;DHT22;5281;48.878;9.394;2023-04-24T11:18:44;15.80;90.70
10468;DHT22;5281;48.878;9.394;2023-04-24T11:21:16;16.00;90.10
10468;DHT22;5281;48.878;9.394;2023-04-24T11:23:44;16.40;89.80
10468;DHT22;5281;48.878;9.394;2023-04-24T11:26:12;16.70;89.40
10468;DHT22;5281;48.878;9.394;2023-04-24T11:28:50;17.30;89.30
10468;DHT22;5281;48.878;9.394;2023-04-24T11:31:36;17.60;86.50
10468;DHT22;5281;48.878;9.394;2023-04-24T11:34:09;17.80;87.80
10468;DHT22;5281;48.878;9.394;2023-04-24T11:36:37;17.80;87.10
10468;DHT22;5281;48.878;9.394;2023-04-24T11:39:05;17.80;86.80
10468;DHT22;5281;48.878;9.394;2023-04-24T11:41:33;17.90;86.70
10468;DHT22;5281;48.878;9.394;2023-04-24T11:44:01;17.90;84.70
10468;DHT22;5281;48.878;9.394;2023-04-24T11:46:29;18.10;84.50
10468;DHT22;5281;48.878;9.394;2023-04-24T11:48:58;18.30;84.70
10468;DHT22;5281;48.878;9.394;2023-04-24T11:51:26;18.50;83.20
10468;DHT22;5281;48.878;9.394;2023-04-24T11:53:55;18.70;83.60
10468;DHT22;5281;48.878;9.394;2023-04-24T11:56:22;18.70;82.80
10468;DHT22;5281;48.878;9.394;2023-04-24T11:58:51;18.80;83.00
10468;DHT22;5281;48.878;9.394;2023-04-24T12:01:18;18.70;82.30
10468;DHT22;5281;48.878;9.394;2023-04-24T12:03:48;18.70;83.60
10468;DHT22;5281;48.878;9.394;2023-04-24T12:06:16;18.60;84.20
10468;DHT22;5281;48.878;9.394;2023-04-24T12:08:47;18.40;85.50
10468;DHT22;5281;48.878;9.394;2023-04-24T12:11:16;18.00;86.90
10468;DHT22;5281;48.878;9.394;2023-04-24T12:13:46;17.70;88.40
10468;DHT22;5281;48.878;9.394;2023-04-24T12:16:13;17.50;90.20
10468;DHT22;5281;48.878;9.394;2023-04-24T12:18:43;17.60;89.20
10468;DHT22;5281;48.878;9.394;2023-04-24T12:21:18;17.70;87.70
10468;DHT22;5281;48.878;9.394;2023-04-24T12:23:46;18.00;86.60
10468;DHT22;5281;48.878;9.394;2023-04-24T12:26:16;18.30;86.10
10468;DHT22;5281;48.878;9.394;2023-04-24T12:28:47;18.50;85.00
10468;DHT22;5281;48.878;9.394;2023-04-24T12:31:14;18.40;84.90
10468;DHT22;5281;48.878;9.394;2023-04-24T12:33:41;18.40;85.20
10468;DHT22;5281;48.878;9.394;2023-04-24T12:36:10;18.30;85.10
10468;DHT22;5281;48.878;9.394;2023-04-24T12:38:37;18.30;85.80
10468;DHT22;5281;48.878;9.394;2023-04-24T12:41:09;18.30;86.70
10468;DHT22;5281;48.878;9.394;2023-04-24T12:43:37;18.00;89.30
10468;DHT22;5281;48.878;9.394;2023-04-24T12:46:04;17.70;91.80
10468;DHT22;5281;48.878;9.394;2023-04-24T12:48:31;17.40;93.30
10468;DHT22;5281;48.878;9.394;2023-04-24T12:50:58;17.10;94.10
10468;DHT22;5281;48.878;9.394;2023-04-24T12:53:27;16.80;94.20
10468;DHT22;5281;48.878;9.394;2023-04-24T12:55:56;16.60;94.30
10468;DHT22;5281;48.878;9.394;2023-04-24T12:58:24;16.50;93.60
10468;DHT22;5281;48.878;9.394;2023-04-24T13:00:51;16.50;93.70
10468;DHT22;5281;48.878;9.394;2023-04-24T13:03:18;16.50;93.60
10468;DHT22;5281;48.878;9.394;2023-04-24T13:05:45;16.40;94.40
10468;DHT22;5281;48.878;9.394;2023-04-24T13:08:12;16.40;94.30
10468;DHT22;5281;48.878;9.394;2023-04-24T13:10:39;16.40;94.90
10468;DHT22;5281;48.878;9.394;2023-04-24T13:13:06;16.60;95.60
10468;DHT22;5281;48.878;9.394;2023-04-24T13:15:35;16.90;94.50
10468;DHT22;5281;48.878;9.394;2023-04-24T13:18:02;16.90;94.10
10468;DHT22;5281;48.878;9.394;2023-04-24T13:20:28;17.00;93.50
10468;DHT22;5281;48.878;9.394;2023-04-24T13:22:55;17.00;93.50
10468;DHT22;5281;48.878;9.394;2023-04-24T13:25:22;17.10;94.80
10468;DHT22;5281;48.878;9.394;2023-04-24T13:27:50;17.10;96.70
10468;DHT22;5281;48.878;9.394;2023-04-24T13:30:17;17.40;96.40
10468;DHT22;5281;48.878;9.394;2023-04-24T13:32:45;17.70;95.30
10468;DHT22;5281;48.878;9.394;2023-04-24T13:35:12;17.80;93.90
10468;DHT22;5281;48.878;9.394;2023-04-24T13:37:39;17.80;93.90
10468;DHT22;5281;48.878;9.394;2023-04-24T13:40:07;18.00;93.70
10468;DHT22;5281;48.878;9.394;2023-04-24T13:42:34;17.90;92.70
10468;DHT22;5281;48.878;9.394;2023-04-24T13:45:01;17.80;91.80
10468;DHT22;5281;48.878;9.394;2023-04-24T13:47:29;17.70;92.60
10468;DHT22;5281;48.878;9.394;2023-04-24T13:49:57;17.80;92.30
10468;DHT22;5281;48.878;9.394;2023-04-24T13:52:24;17.80;92.30
10468;DHT22;5281;48.878;9.394;2023-04-24T13:54:51;17.90;91.50
10468;DHT22;5281;48.878;9.394;2023-04-24T13:57:18;18.00;91.00
10468;DHT22;5281;48.878;9.394;2023-04-24T13:59:45;18.20;91.20
10468;DHT22;5281;48.878;9.394;2023-04-24T14:02:12;18.30;90.80
10468;DHT22;5281;48.878;9.394;2023-04-24T14:04:39;18.40;90.20
10468;DHT22;5281;48.878;9.394;2023-04-24T14:07:07;18.30;90.40
10468;DHT22;5281;48.878;9.394;2023-04-24T14:09:34;18.20;90.40
10468;DHT22;5281;48.878;9.394;2023-04-24T14:12:01;18.00;90.90
10468;DHT22;5281;48.878;9.394;2023-04-24T14:14:29;17.80;91.20
10468;DHT22;5281;48.878;9.394;2023-04-24T14:16:57;17.70;92.00
10468;DHT22;5281;48.878;9.394;2023-04-24T14:19:23;17.80;92.30
10468;DHT22;5281;48.878;9.394;2023-04-24T14:21:50;17.80;91.30
10468;DHT22;5281;48.878;9.394;2023-04-24T14:24:19;17.70;91.50
10468;DHT22;5281;48.878;9.394;2023-04-24T14:26:46;17.60;92.00
10468;DHT22;5281;48.878;9.394;2023-04-24T14:29:13;17.60;91.90
10468;DHT22;5281;48.878;9.394;2023-04-24T14:31:40;17.60;92.00
10468;DHT22;5281;48.878;9.394;2023-04-24T14:34:07;17.90;91.80
10468;DHT22;5281;48.878;9.394;2023-04-24T14:36:34;18.00;91.20
10468;DHT22;5281;48.878;9.394;2023-04-24T14:39:01;18.00;90.70
10468;DHT22;5281;48.878;9.394;2023-04-24T14:41:33;17.80;91.60
10468;DHT22;5281;48.878;9.394;2023-04-24T14:44:01;17.80;91.30
10468;DHT22;5281;48.878;9.394;2023-04-24T14:46:29;17.90;91.30
10468;DHT22;5281;48.878;9.394;2023-04-24T14:49:00;18.00;90.90
10468;DHT22;5281;48.878;9.394;2023-04-24T14:51:27;18.00;91.20
10468;DHT22;5281;48.878;9.394;2023-04-24T14:53:57;18.00;90.70
10468;DHT22;5281;48.878;9.394;2023-04-24T14:56:24;18.10;90.50
10468;DHT22;5281;48.878;9.394;2023-04-24T14:58:52;18.20;90.90
10468;DHT22;5281;48.878;9.394;2023-04-24T15:01:19;18.40;90.60
10468;DHT22;5281;48.878;9.394;2023-04-24T15:03:46;18.40;90.50
10468;DHT22;5281;48.878;9.394;2023-04-24T15:06:13;18.50;89.90
10468;DHT22;5281;48.878;9.394;2023-04-24T15:08:40;18.40;88.10
10468;DHT22;5281;48.878;9.394;2023-04-24T15:11:07;18.40;89.70
10468;DHT22;5281;48.878;9.394;2023-04-24T15:13:35;18.40;89.80
10468;DHT22;5281;48.878;9.394;2023-04-24T15:16:05;18.40;87.00
10468;DHT22;5281;48.878;9.394;2023-04-24T15:18:38;18.50;86.80
10468;DHT22;5281;48.878;9.394;2023-04-24T15:21:07;18.50;87.10
10468;DHT22;5281;48.878;9.394;2023-04-24T15:23:34;18.60;87.60
10468;DHT22;5281;48.878;9.394;2023-04-24T15:26:01;18.40;88.40
10468;DHT22;5281;48.878;9.394;2023-04-24T15:28:28;18.40;86.10
10468;DHT22;5281;48.878;9.394;2023-04-24T15:30:58;18.20;84.70
10468;DHT22;5281;48.878;9.394;2023-04-24T15:33:27;17.90;86.30
10468;DHT22;5281;48.878;9.394;2023-04-24T15:35:54;17.40;87.50
10468;DHT22;5281;48.878;9.394;2023-04-24T15:38:21;17.00;87.60
10468;DHT22;5281;48.878;9.394;2023-04-24T15:40:47;16.70;86.20
10468;DHT22;5281;48.878;9.394;2023-04-24T15:43:15;16.50;88.30
10468;DHT22;5281;48.878;9.394;2023-04-24T15:45:42;16.40;90.00
10468;DHT22;5281;48.878;9.394;2023-04-24T15:48:09;16.40;90.20